sensor_id;sensor_type;location;lat;lon;timestamp;temperature;humidity
30520;DHT22;17300;50.374;8.006;2023-12-22T00:02:02;11.40;54.40
30520;DHT22;17300;50.374;8.006;2023-12-22T00:04:30;11.40;54.50
30520;DHT22;17300;50.374;8.006;2023-12-22T00:06:57;11.40;54.70
30520;DHT22;17300;50.374;8.006;2023-12-22T00:09:23;11.40;54.70
30520;DHT22;17300;50.374;8.006;2023-12-22T00:11:50;11.30;54.70
30520;DHT22;17300;50.374;8.006;2023-12-22T00:14:17;11.30;54.70
30520;DHT22;17300;50.374;8.006;2023-12-22T00:16:43;11.30;54.70
30520;DHT22;17300;50.374;8.006;2023-12-22T00:19:10;11.30;54.70
30520;DHT22;17300;50.374;8.006;2023-12-22T00:21:38;11.30;54.70
30520;DHT22;17300;50.374;8.006;2023-12-22T00:24:05;11.30;54.70
30520;DHT22;17300;50.374;8.006;2023-12-22T00:26:32;11.40;54.80
30520;DHT22;17300;50.374;8.006;2023-12-22T00:28:59;11.30;54.80
30520;DHT22;17300;50.374;8.006;2023-12-22T00:31:25;11.30;54.80
30520;DHT22;17300;50.374;8.006;2023-12-22T00:33:52;11.40;54.80
30520;DHT22;17300;50.374;8.006;2023-12-22T00:36:19;11.40;54.80
30520;DHT22;17300;50.374;8.006;2023-12-22T00:38:49;11.40;54.80
30520;DHT22;17300;50.374;8.006;2023-12-22T00:41:16;11.40;54.80
30520;DHT22;17300;50.374;8.006;2023-12-22T00:43:43;11.40;55.00
30520;DHT22;17300;50.374;8.006;2023-12-22T00:46:10;11.50;54.80
30520;DHT22;17300;50.374;8.006;2023-12-22T00:48:36;11.50;54.80
30520;DHT22;17300;50.374;8.006;2023-12-22T00:51:04;11.50;54.80
30520;DHT22;17300;50.374;8.006;2023-12-22T00:53:31;11.50;54.80
30520;DHT22;17300;50.374;8.006;2023-12-22T00:55:59;11.50;54.90
30520;DHT22;17300;50.374;8.006;2023-12-22T00:58:26;11.50;55.00
30520;DHT22;17300;50.374;8.006;2023-12-22T01:00:53;11.50;55.00
30520;DHT22;17300;50.374;8.006;2023-12-22T01:03:19;11.50;54.90
30520;DHT22;17300;50.374;8.006;2023-12-22T01:05:46;11.50;54.20
30520;DHT22;17300;50.374;8.006;2023-12-22T01:08:12;11.50;53.60
30520;DHT22;17300;50.374;8.006;2023-12-22T01:10:39;11.40;53.40
30520;DHT22;17300;50.374;8.006;2023-12-22T01:13:07;11.40;53.30
30520;DHT22;17300;50.374;8.006;2023-12-22T01:15:34;11.30;53.20
30520;DHT22;17300;50.374;8.006;2023-12-22T01:18:00;11.20;52.90
30520;DHT22;17300;50.374;8.006;2023-12-22T01:20:27;11.20;53.20
30520;DHT22;17300;50.374;8.006;2023-12-22T01:22:54;11.10;53.20
30520;DHT22;17300;50.374;8.006;2023-12-22T01:25:20;11.10;53.30
30520;DHT22;17300;50.374;8.006;2023-12-22T01:27:47;11.00;53.30
30520;DHT22;17300;50.374;8.006;2023-12-22T01:30:17;11.00;53.50
30520;DHT22;17300;50.374;8.006;2023-12-22T01:32:44;11.00;53.90
30520;DHT22;17300;50.374;8.006;2023-12-22T01:35:10;11.00;53.50
30520;DHT22;17300;50.374;8.006;2023-12-22T01:37:37;11.00;53.50
30520;DHT22;17300;50.374;8.006;2023-12-22T01:40:04;11.00;53.50
30520;DHT22;17300;50.374;8.006;2023-12-22T01:42:31;10.90;53.40
30520;DHT22;17300;50.374;8.006;2023-12-22T01:44:58;10.90;53.20
30520;DHT22;17300;50.374;8.006;2023-12-22T01:47:26;10.90;53.20
30520;DHT22;17300;50.374;8.006;2023-12-22T01:49:53;10.90;53.20
30520;DHT22;17300;50.374;8.006;2023-12-22T01:52:20;10.90;53.30
30520;DHT22;17300;50.374;8.006;2023-12-22T01:54:47;10.80;53.20
30520;DHT22;17300;50.374;8.006;2023-12-22T01:57:16;10.80;53.30
30520;DHT22;17300;50.374;8.006;2023-12-22T01:59:43;10.70;53.30
30520;DHT22;17300;50.374;8.006;2023-12-22T02:02:10;10.70;53.30
30520;DHT22;17300;50.374;8.006;2023-12-22T02:04:39;10.70;53.30
30520;DHT22;17300;50.374;8.006;2023-12-22T02:07:08;10.70;53.30
30520;DHT22;17300;50.374;8.006;2023-12-22T02:09:36;10.70;53.30
30520;DHT22;17300;50.374;8.006;2023-12-22T02:12:03;10.70;53.40
30520;DHT22;17300;50.374;8.006;2023-12-22T02:14:30;10.60;53.30
30520;DHT22;17300;50.374;8.006;2023-12-22T02:17:05;10.60;53.40
30520;DHT22;17300;50.374;8.006;2023-12-22T02:19:41;10.60;53.50
30520;DHT22;17300;50.374;8.006;2023-12-22T02:22:10;10.60;53.60
30520;DHT22;17300;50.374;8.006;2023-12-22T02:24:38;10.60;53.60
30520;DHT22;17300;50.374;8.006;2023-12-22T02:27:09;10.60;53.60
30520;DHT22;17300;50.374;8.006;2023-12-22T02:29:42;10.60;53.60
30520;DHT22;17300;50.374;8.006;2023-12-22T02:32:14;10.60;53.70
30520;DHT22;17300;50.374;8.006;2023-12-22T02:34:43;10.60;53.70
30520;DHT22;17300;50.374;8.006;2023-12-22T02:37:11;10.70;53.90
30520;DHT22;17300;50.374;8.006;2023-12-22T02:39:41;10.70;53.90
30520;DHT22;17300;50.374;8.006;2023-12-22T02:42:09;10.70;53.90
30520;DHT22;17300;50.374;8.006;2023-12-22T02:44:36;10.70;53.90
30520;DHT22;17300;50.374;8.006;2023-12-22T02:47:02;10.70;53.90
30520;DHT22;17300;50.374;8.006;2023-12-22T02:49:29;10.70;54.00
30520;DHT22;17300;50.374;8.006;2023-12-22T02:51:56;10.70;54.00
30520;DHT22;17300;50.374;8.006;2023-12-22T02:54:22;10.70;54.00
30520;DHT22;17300;50.374;8.006;2023-12-22T02:56:50;10.70;54.10
30520;DHT22;17300;50.374;8.006;2023-12-22T02:59:17;10.70;54.80
30520;DHT22;17300;50.374;8.006;2023-12-22T03:01:44;10.70;54.20
30520;DHT22;17300;50.374;8.006;2023-12-22T03:04:10;10.70;54.30
30520;DHT22;17300;50.374;8.006;2023-12-22T03:06:37;10.70;54.40
30520;DHT22;17300;50.374;8.006;2023-12-22T03:09:03;10.80;54.40
30520;DHT22;17300;50.374;8.006;2023-12-22T03:11:31;10.80;54.40
30520;DHT22;17300;50.374;8.006;2023-12-22T03:13:59;10.80;54.40
30520;DHT22;17300;50.374;8.006;2023-12-22T03:16:26;10.80;54.40
30520;DHT22;17300;50.374;8.006;2023-12-22T03:18:52;10.80;54.30
30520;DHT22;17300;50.374;8.006;2023-12-22T03:21:19;10.80;54.30
30520;DHT22;17300;50.374;8.006;2023-12-22T03:23:46;10.80;54.30
30520;DHT22;17300;50.374;8.006;2023-12-22T03:26:12;10.80;54.30
30520;DHT22;17300;50.374;8.006;2023-12-22T03:28:39;10.80;54.40
30520;DHT22;17300;50.374;8.006;2023-12-22T03:31:07;10.80;54.50
30520;DHT22;17300;50.374;8.006;2023-12-22T03:33:34;10.80;54.70
30520;DHT22;17300;50.374;8.006;2023-12-22T03:36:00;10.90;54.70
30520;DHT22;17300;50.374;8.006;2023-12-22T03:38:27;10.90;54.90
30520;DHT22;17300;50.374;8.006;2023-12-22T03:40:54;10.80;54.90
30520;DHT22;17300;50.374;8.006;2023-12-22T03:43:20;10.90;55.00
30520;DHT22;17300;50.374;8.006;2023-12-22T03:45:47;10.80;54.80
30520;DHT22;17300;50.374;8.006;2023-12-22T03:48:15;10.90;55.00
30520;DHT22;17300;50.374;8.006;2023-12-22T03:50:42;10.80;54.90
30520;DHT22;17300;50.374;8.006;2023-12-22T03:53:09;10.90;55.00
30520;DHT22;17300;50.374;8.006;2023-12-22T03:55:35;10.80;55.00
30520;DHT22;17300;50.374;8.006;2023-12-22T03:58:02;10.90;55.00
30520;DHT22;17300;50.374;8.006;2023-12-22T04:00:30;10.90;55.10
30520;DHT22;17300;50.374;8.006;2023-12-22T04:02:57;10.90;55.10
30520;DHT22;17300;50.374;8.006;2023-12-22T04:05:24;10.90;55.20
30520;DHT22;17300;50.374;8.006;2023-12-22T04:07:51;10.90;55.30
30520;DHT22;17300;50.374;8.006;2023-12-22T04:10:18;11.00;55.40
30520;DHT22;17300;50.374;8.006;2023-12-22T04:12:45;11.00;55.50
30520;DHT22;17300;50.374;8.006;2023-12-22T04:15:11;11.00;55.50
30520;DHT22;17300;50.374;8.006;2023-12-22T04:17:38;11.00;55.50
30520;DHT22;17300;50.374;8.006;2023-12-22T04:20:06;11.00;55.50
30520;DHT22;17300;50.374;8.006;2023-12-22T04:22:34;11.00;55.50
30520;DHT22;17300;50.374;8.006;2023-12-22T04:25:01;11.10;55.50
30520;DHT22;17300;50.374;8.006;2023-12-22T04:27:27;11.10;55.40
30520;DHT22;17300;50.374;8.006;2023-12-22T04:29:54;11.10;55.40
30520;DHT22;17300;50.374;8.006;2023-12-22T04:32:21;11.10;55.40
30520;DHT22;17300;50.374;8.006;2023-12-22T04:34:47;11.10;55.30
30520;DHT22;17300;50.374;8.006;2023-12-22T04:37:14;11.10;55.30
30520;DHT22;17300;50.374;8.006;2023-12-22T04:39:42;11.10;55.40
30520;DHT22;17300;50.374;8.006;2023-12-22T04:42:09;11.10;55.40
30520;DHT22;17300;50.374;8.006;2023-12-22T04:44:35;11.10;55.40
30520;DHT22;17300;50.374;8.006;2023-12-22T04:47:02;11.20;55.50
30520;DHT22;17300;50.374;8.006;2023-12-22T04:49:29;11.20;55.50
30520;DHT22;17300;50.374;8.006;2023-12-22T04:51:56;11.20;55.50
30520;DHT22;17300;50.374;8.006;2023-12-22T04:54:22;11.20;56.20
30520;DHT22;17300;50.374;8.006;2023-12-22T04:56:50;11.20;55.60
30520;DHT22;17300;50.374;8.006;2023-12-22T04:59:17;11.20;55.60
30520;DHT22;17300;50.374;8.006;2023-12-22T05:05:01;11.20;55.70
30520;DHT22;17300;50.374;8.006;2023-12-22T05:07:31;11.20;55.40
30520;DHT22;17300;50.374;8.006;2023-12-22T05:09:58;11.30;55.50
30520;DHT22;17300;50.374;8.006;2023-12-22T05:12:27;11.20;55.40
30520;DHT22;17300;50.374;8.006;2023-12-22T05:14:54;11.20;55.30
30520;DHT22;17300;50.374;8.006;2023-12-22T05:17:23;11.20;55.30
30520;DHT22;17300;50.374;8.006;2023-12-22T05:19:52;11.20;55.40
30520;DHT22;17300;50.374;8.006;2023-12-22T05:22:19;11.30;55.40
30520;DHT22;17300;50.374;8.006;2023-12-22T05:24:46;11.30;55.30
30520;DHT22;17300;50.374;8.006;2023-12-22T05:27:18;11.20;55.20
30520;DHT22;17300;50.374;8.006;2023-12-22T05:37:16;11.30;55.30
30520;DHT22;17300;50.374;8.006;2023-12-22T05:39:43;11.30;55.70
30520;DHT22;17300;50.374;8.006;2023-12-22T05:42:10;11.20;54.90
30520;DHT22;17300;50.374;8.006;2023-12-22T05:45:08;11.30;55.00
30520;DHT22;17300;50.374;8.006;2023-12-22T05:48:02;11.20;54.80
30520;DHT22;17300;50.374;8.006;2023-12-22T05:50:32;11.30;54.90
30520;DHT22;17300;50.374;8.006;2023-12-22T05:53:00;11.30;54.90
30520;DHT22;17300;50.374;8.006;2023-12-22T05:55:27;11.20;54.80
30520;DHT22;17300;50.374;8.006;2023-12-22T05:57:56;11.30;55.00
30520;DHT22;17300;50.374;8.006;2023-12-22T06:00:23;11.30;54.90
30520;DHT22;17300;50.374;8.006;2023-12-22T06:02:51;11.30;55.10
30520;DHT22;17300;50.374;8.006;2023-12-22T06:05:18;11.30;55.10
30520;DHT22;17300;50.374;8.006;2023-12-22T07:12:14;11.60;54.20
30520;DHT22;17300;50.374;8.006;2023-12-22T07:23:47;11.70;54.20
30520;DHT22;17300;50.374;8.006;2023-12-22T07:26:14;11.70;54.50
30520;DHT22;17300;50.374;8.006;2023-12-22T07:32:13;11.80;54.40
30520;DHT22;17300;50.374;8.006;2023-12-22T07:35:02;11.80;54.40
30520;DHT22;17300;50.374;8.006;2023-12-22T07:37:38;11.80;54.60
30520;DHT22;17300;50.374;8.006;2023-12-22T07:57:13;11.90;54.60
30520;DHT22;17300;50.374;8.006;2023-12-22T09:10:41;11.90;55.40
30520;DHT22;17300;50.374;8.006;2023-12-22T09:52:28;12.10;56.20
30520;DHT22;17300;50.374;8.006;2023-12-22T09:54:58;12.10;56.20
30520;DHT22;17300;50.374;8.006;2023-12-22T10:10:56;12.30;56.20
30520;DHT22;17300;50.374;8.006;2023-12-22T10:50:41;12.60;56.40
30520;DHT22;17300;50.374;8.006;2023-12-22T10:53:22;12.60;56.40
30520;DHT22;17300;50.374;8.006;2023-12-22T10:55:50;12.60;56.40
30520;DHT22;17300;50.374;8.006;2023-12-22T10:58:18;12.60;56.40
30520;DHT22;17300;50.374;8.006;2023-12-22T11:00:51;12.70;56.60
30520;DHT22;17300;50.374;8.006;2023-12-22T11:03:39;12.70;56.60
30520;DHT22;17300;50.374;8.006;2023-12-22T11:06:12;12.70;56.60
30520;DHT22;17300;50.374;8.006;2023-12-22T11:12:04;12.80;56.80
30520;DHT22;17300;50.374;8.006;2023-12-22T11:14:32;12.80;56.60
30520;DHT22;17300;50.374;8.006;2023-12-22T11:17:00;12.80;56.60
30520;DHT22;17300;50.374;8.006;2023-12-22T11:19:31;12.80;56.60
30520;DHT22;17300;50.374;8.006;2023-12-22T11:22:03;12.80;57.30
30520;DHT22;17300;50.374;8.006;2023-12-22T11:34:36;12.90;56.60
30520;DHT22;17300;50.374;8.006;2023-12-22T11:37:07;12.90;56.60
30520;DHT22;17300;50.374;8.006;2023-12-22T11:39:43;12.90;56.60
30520;DHT22;17300;50.374;8.006;2023-12-22T11:42:15;12.90;56.70
30520;DHT22;17300;50.374;8.006;2023-12-22T11:44:43;12.90;56.70
30520;DHT22;17300;50.374;8.006;2023-12-22T11:47:11;12.90;56.80
30520;DHT22;17300;50.374;8.006;2023-12-22T11:50:02;12.90;56.90
30520;DHT22;17300;50.374;8.006;2023-12-22T12:10:05;12.80;57.60
30520;DHT22;17300;50.374;8.006;2023-12-22T12:12:43;12.80;57.30
30520;DHT22;17300;50.374;8.006;2023-12-22T12:15:25;12.80;57.60
30520;DHT22;17300;50.374;8.006;2023-12-22T12:17:52;12.70;57.50
30520;DHT22;17300;50.374;8.006;2023-12-22T12:20:52;12.70;57.60
30520;DHT22;17300;50.374;8.006;2023-12-22T12:24:04;12.70;58.00
30520;DHT22;17300;50.374;8.006;2023-12-22T12:26:44;12.70;58.00
30520;DHT22;17300;50.374;8.006;2023-12-22T12:29:11;12.80;57.80
30520;DHT22;17300;50.374;8.006;2023-12-22T12:31:38;12.70;57.80
30520;DHT22;17300;50.374;8.006;2023-12-22T12:34:05;12.80;57.90
30520;DHT22;17300;50.374;8.006;2023-12-22T12:36:32;12.80;58.00
30520;DHT22;17300;50.374;8.006;2023-12-22T12:39:05;12.80;58.10
30520;DHT22;17300;50.374;8.006;2023-12-22T12:41:38;12.80;58.20
30520;DHT22;17300;50.374;8.006;2023-12-22T12:44:10;12.80;58.20
30520;DHT22;17300;50.374;8.006;2023-12-22T12:46:39;12.80;58.20
30520;DHT22;17300;50.374;8.006;2023-12-22T12:49:08;12.80;58.90
30520;DHT22;17300;50.374;8.006;2023-12-22T12:51:37;12.80;58.20
30520;DHT22;17300;50.374;8.006;2023-12-22T12:54:05;12.90;58.40
30520;DHT22;17300;50.374;8.006;2023-12-22T12:56:37;12.90;58.50
30520;DHT22;17300;50.374;8.006;2023-12-22T12:59:07;12.90;58.50
30520;DHT22;17300;50.374;8.006;2023-12-22T13:01:39;12.90;58.60
30520;DHT22;17300;50.374;8.006;2023-12-22T13:04:05;13.00;58.70
30520;DHT22;17300;50.374;8.006;2023-12-22T13:06:33;13.00;58.70
30520;DHT22;17300;50.374;8.006;2023-12-22T13:09:00;13.00;58.70
30520;DHT22;17300;50.374;8.006;2023-12-22T13:11:30;13.00;58.80
30520;DHT22;17300;50.374;8.006;2023-12-22T13:14:10;13.10;58.80
30520;DHT22;17300;50.374;8.006;2023-12-22T13:19:57;13.20;58.90
30520;DHT22;17300;50.374;8.006;2023-12-22T13:22:35;13.30;58.70
30520;DHT22;17300;50.374;8.006;2023-12-22T13:25:03;13.30;58.60
30520;DHT22;17300;50.374;8.006;2023-12-22T13:27:47;13.30;58.60
30520;DHT22;17300;50.374;8.006;2023-12-22T13:30:14;13.40;58.50
30520;DHT22;17300;50.374;8.006;2023-12-22T13:32:41;13.40;58.50
30520;DHT22;17300;50.374;8.006;2023-12-22T13:35:12;13.40;58.30
30520;DHT22;17300;50.374;8.006;2023-12-22T13:37:42;13.50;58.30
30520;DHT22;17300;50.374;8.006;2023-12-22T13:40:11;13.50;58.10
30520;DHT22;17300;50.374;8.006;2023-12-22T13:42:39;13.50;58.10
30520;DHT22;17300;50.374;8.006;2023-12-22T13:45:10;13.60;58.10
30520;DHT22;17300;50.374;8.006;2023-12-22T13:47:40;13.60;58.00
30520;DHT22;17300;50.374;8.006;2023-12-22T13:50:14;13.60;58.10
30520;DHT22;17300;50.374;8.006;2023-12-22T13:52:42;13.70;58.10
30520;DHT22;17300;50.374;8.006;2023-12-22T13:55:12;13.70;58.00
30520;DHT22;17300;50.374;8.006;2023-12-22T13:57:40;13.70;58.00
30520;DHT22;17300;50.374;8.006;2023-12-22T14:00:25;13.70;58.00
30520;DHT22;17300;50.374;8.006;2023-12-22T14:03:22;13.70;58.00
30520;DHT22;17300;50.374;8.006;2023-12-22T14:22:43;13.70;58.00
30520;DHT22;17300;50.374;8.006;2023-12-22T15:41:01;13.90;56.80
30520;DHT22;17300;50.374;8.006;2023-12-22T15:43:43;13.90;57.00
30520;DHT22;17300;50.374;8.006;2023-12-22T15:46:52;13.90;56.70
30520;DHT22;17300;50.374;8.006;2023-12-22T15:53:18;13.90;56.60
30520;DHT22;17300;50.374;8.006;2023-12-22T16:10:17;14.10;56.60
30520;DHT22;17300;50.374;8.006;2023-12-22T16:17:10;14.00;56.60
30520;DHT22;17300;50.374;8.006;2023-12-22T16:23:34;14.00;57.10
30520;DHT22;17300;50.374;8.006;2023-12-22T16:36:08;13.90;57.40
30520;DHT22;17300;50.374;8.006;2023-12-22T16:38:41;13.80;57.30
30520;DHT22;17300;50.374;8.006;2023-12-22T16:41:26;13.80;57.40
30520;DHT22;17300;50.374;8.006;2023-12-22T16:43:55;13.80;57.40
30520;DHT22;17300;50.374;8.006;2023-12-22T16:46:23;13.80;57.50
30520;DHT22;17300;50.374;8.006;2023-12-22T16:48:51;13.80;57.50
30520;DHT22;17300;50.374;8.006;2023-12-22T16:51:30;13.80;57.50
30520;DHT22;17300;50.374;8.006;2023-12-22T16:53:57;13.80;57.50
30520;DHT22;17300;50.374;8.006;2023-12-22T16:56:25;13.80;57.50
30520;DHT22;17300;50.374;8.006;2023-12-22T16:58:52;13.80;57.40
30520;DHT22;17300;50.374;8.006;2023-12-22T17:01:18;13.80;57.40
30520;DHT22;17300;50.374;8.006;2023-12-22T17:03:45;13.80;57.30
30520;DHT22;17300;50.374;8.006;2023-12-22T17:06:12;13.80;57.30
30520;DHT22;17300;50.374;8.006;2023-12-22T17:08:40;13.90;57.40
30520;DHT22;17300;50.374;8.006;2023-12-22T17:11:07;13.90;57.80
30520;DHT22;17300;50.374;8.006;2023-12-22T17:13:34;13.90;57.20
30520;DHT22;17300;50.374;8.006;2023-12-22T17:16:01;13.90;57.10
30520;DHT22;17300;50.374;8.006;2023-12-22T17:18:28;13.90;57.10
30520;DHT22;17300;50.374;8.006;2023-12-22T17:20:55;13.90;57.10
30520;DHT22;17300;50.374;8.006;2023-12-22T17:23:21;14.00;57.10
30520;DHT22;17300;50.374;8.006;2023-12-22T17:25:49;14.00;57.00
30520;DHT22;17300;50.374;8.006;2023-12-22T17:28:18;14.00;57.00
30520;DHT22;17300;50.374;8.006;2023-12-22T17:30:44;14.00;56.90
30520;DHT22;17300;50.374;8.006;2023-12-22T17:33:11;14.00;56.80
30520;DHT22;17300;50.374;8.006;2023-12-22T17:35:38;14.00;56.70
30520;DHT22;17300;50.374;8.006;2023-12-22T17:38:07;14.00;56.70
30520;DHT22;17300;50.374;8.006;2023-12-22T17:40:33;14.10;56.70
30520;DHT22;17300;50.374;8.006;2023-12-22T17:43:01;14.10;56.60
30520;DHT22;17300;50.374;8.006;2023-12-22T17:45:28;14.10;56.50
30520;DHT22;17300;50.374;8.006;2023-12-22T17:47:55;14.10;56.50
30520;DHT22;17300;50.374;8.006;2023-12-22T17:50:22;14.10;56.60
30520;DHT22;17300;50.374;8.006;2023-12-22T17:52:49;14.10;56.60
30520;DHT22;17300;50.374;8.006;2023-12-22T17:55:16;14.10;56.60
30520;DHT22;17300;50.374;8.006;2023-12-22T17:57:42;14.10;56.40
30520;DHT22;17300;50.374;8.006;2023-12-22T18:00:12;14.10;56.20
30520;DHT22;17300;50.374;8.006;2023-12-22T18:02:41;14.10;56.30
30520;DHT22;17300;50.374;8.006;2023-12-22T18:05:07;14.20;56.40
30520;DHT22;17300;50.374;8.006;2023-12-22T18:07:34;14.20;56.30
30520;DHT22;17300;50.374;8.006;2023-12-22T18:10:01;14.20;56.40
30520;DHT22;17300;50.374;8.006;2023-12-22T18:12:35;14.20;56.30
30520;DHT22;17300;50.374;8.006;2023-12-22T18:15:01;14.20;56.20
30520;DHT22;17300;50.374;8.006;2023-12-22T18:17:30;14.20;56.30
30520;DHT22;17300;50.374;8.006;2023-12-22T18:19:59;14.20;56.20
30520;DHT22;17300;50.374;8.006;2023-12-22T18:22:26;14.20;56.20
30520;DHT22;17300;50.374;8.006;2023-12-22T18:24:52;14.20;56.30
30520;DHT22;17300;50.374;8.006;2023-12-22T18:27:19;14.20;56.30
30520;DHT22;17300;50.374;8.006;2023-12-22T18:29:46;14.30;56.30
30520;DHT22;17300;50.374;8.006;2023-12-22T18:32:13;14.20;56.40
30520;DHT22;17300;50.374;8.006;2023-12-22T18:34:41;14.20;56.30
30520;DHT22;17300;50.374;8.006;2023-12-22T18:37:08;14.20;56.20
30520;DHT22;17300;50.374;8.006;2023-12-22T18:39:35;14.20;56.20
30520;DHT22;17300;50.374;8.006;2023-12-22T18:42:02;14.20;56.30
30520;DHT22;17300;50.374;8.006;2023-12-22T18:44:30;14.20;56.40
30520;DHT22;17300;50.374;8.006;2023-12-22T18:46:57;14.20;56.20
30520;DHT22;17300;50.374;8.006;2023-12-22T18:49:23;14.20;56.20
30520;DHT22;17300;50.374;8.006;2023-12-22T18:51:51;14.20;56.20
30520;DHT22;17300;50.374;8.006;2023-12-22T18:54:18;14.20;56.30
30520;DHT22;17300;50.374;8.006;2023-12-22T18:56:46;14.10;56.20
30520;DHT22;17300;50.374;8.006;2023-12-22T18:59:13;14.20;56.40
30520;DHT22;17300;50.374;8.006;2023-12-22T19:01:40;14.20;56.40
30520;DHT22;17300;50.374;8.006;2023-12-22T19:04:07;14.20;56.40
30520;DHT22;17300;50.374;8.006;2023-12-22T19:06:34;14.20;56.30
30520;DHT22;17300;50.374;8.006;2023-12-22T19:09:02;14.20;56.30
30520;DHT22;17300;50.374;8.006;2023-12-22T19:11:29;14.10;56.10
30520;DHT22;17300;50.374;8.006;2023-12-22T19:13:56;14.10;56.10
30520;DHT22;17300;50.374;8.006;2023-12-22T19:16:23;14.20;56.20
30520;DHT22;17300;50.374;8.006;2023-12-22T19:18:53;14.20;56.10
30520;DHT22;17300;50.374;8.006;2023-12-22T19:21:19;14.20;56.10
30520;DHT22;17300;50.374;8.006;2023-12-22T19:23:46;14.20;56.10
30520;DHT22;17300;50.374;8.006;2023-12-22T19:26:14;14.20;56.10
30520;DHT22;17300;50.374;8.006;2023-12-22T19:28:42;14.20;56.10
30520;DHT22;17300;50.374;8.006;2023-12-22T19:31:09;14.20;55.90
30520;DHT22;17300;50.374;8.006;2023-12-22T19:33:46;14.20;56.10
30520;DHT22;17300;50.374;8.006;2023-12-22T19:36:13;14.20;55.90
30520;DHT22;17300;50.374;8.006;2023-12-22T19:38:40;14.20;56.00
30520;DHT22;17300;50.374;8.006;2023-12-22T19:41:06;14.20;55.90
30520;DHT22;17300;50.374;8.006;2023-12-22T19:43:35;14.20;55.80
30520;DHT22;17300;50.374;8.006;2023-12-22T19:46:01;14.20;55.90
30520;DHT22;17300;50.374;8.006;2023-12-22T19:48:28;14.20;55.80
30520;DHT22;17300;50.374;8.006;2023-12-22T19:50:55;14.20;55.80
30520;DHT22;17300;50.374;8.006;2023-12-22T19:53:21;14.30;56.00
30520;DHT22;17300;50.374;8.006;2023-12-22T19:55:48;14.30;56.10
30520;DHT22;17300;50.374;8.006;2023-12-22T19:58:14;14.30;56.10
30520;DHT22;17300;50.374;8.006;2023-12-22T20:00:43;14.20;56.00
30520;DHT22;17300;50.374;8.006;2023-12-22T20:03:11;14.20;55.80
30520;DHT22;17300;50.374;8.006;2023-12-22T20:05:37;14.20;55.80
30520;DHT22;17300;50.374;8.006;2023-12-22T20:08:06;14.20;55.70
30520;DHT22;17300;50.374;8.006;2023-12-22T20:10:33;14.20;55.60
30520;DHT22;17300;50.374;8.006;2023-12-22T20:13:01;14.10;55.60
30520;DHT22;17300;50.374;8.006;2023-12-22T20:15:27;14.10;55.70
30520;DHT22;17300;50.374;8.006;2023-12-22T20:17:55;14.10;55.70
30520;DHT22;17300;50.374;8.006;2023-12-22T20:20:22;14.10;55.60
30520;DHT22;17300;50.374;8.006;2023-12-22T20:22:49;14.10;55.60
30520;DHT22;17300;50.374;8.006;2023-12-22T20:25:15;14.10;55.60
30520;DHT22;17300;50.374;8.006;2023-12-22T20:27:42;14.10;55.50
30520;DHT22;17300;50.374;8.006;2023-12-22T20:30:10;14.10;55.50
30520;DHT22;17300;50.374;8.006;2023-12-22T20:32:36;14.20;55.60
30520;DHT22;17300;50.374;8.006;2023-12-22T20:35:06;14.20;55.80
30520;DHT22;17300;50.374;8.006;2023-12-22T20:37:33;14.20;55.90
30520;DHT22;17300;50.374;8.006;2023-12-22T20:40:00;14.20;56.10
30520;DHT22;17300;50.374;8.006;2023-12-22T20:42:27;14.20;56.20
30520;DHT22;17300;50.374;8.006;2023-12-22T20:44:53;14.20;56.30
30520;DHT22;17300;50.374;8.006;2023-12-22T20:47:21;14.20;56.20
30520;DHT22;17300;50.374;8.006;2023-12-22T20:49:48;14.10;56.10
30520;DHT22;17300;50.374;8.006;2023-12-22T20:52:16;14.10;56.10
30520;DHT22;17300;50.374;8.006;2023-12-22T20:54:42;14.10;56.10
30520;DHT22;17300;50.374;8.006;2023-12-22T20:57:09;14.10;55.70
30520;DHT22;17300;50.374;8.006;2023-12-22T20:59:36;14.10;55.50
30520;DHT22;17300;50.374;8.006;2023-12-22T21:02:04;14.10;55.50
30520;DHT22;17300;50.374;8.006;2023-12-22T21:04:31;14.10;55.20
30520;DHT22;17300;50.374;8.006;2023-12-22T21:06:57;14.10;55.10
30520;DHT22;17300;50.374;8.006;2023-12-22T21:09:25;14.10;54.80
30520;DHT22;17300;50.374;8.006;2023-12-22T21:11:53;14.10;55.00
30520;DHT22;17300;50.374;8.006;2023-12-22T21:14:20;14.10;54.80
30520;DHT22;17300;50.374;8.006;2023-12-22T21:16:47;14.10;54.60
30520;DHT22;17300;50.374;8.006;2023-12-22T21:19:14;14.10;54.70
30520;DHT22;17300;50.374;8.006;2023-12-22T21:21:41;14.20;54.30
30520;DHT22;17300;50.374;8.006;2023-12-22T21:24:08;14.10;54.10
30520;DHT22;17300;50.374;8.006;2023-12-22T21:26:36;14.20;54.20
30520;DHT22;17300;50.374;8.006;2023-12-22T21:29:03;14.20;53.90
30520;DHT22;17300;50.374;8.006;2023-12-22T21:31:29;14.20;54.00
30520;DHT22;17300;50.374;8.006;2023-12-22T21:33:56;14.20;54.00
30520;DHT22;17300;50.374;8.006;2023-12-22T21:36:24;14.20;53.90
30520;DHT22;17300;50.374;8.006;2023-12-22T21:38:51;14.20;53.90
30520;DHT22;17300;50.374;8.006;2023-12-22T21:41:19;14.20;54.00
30520;DHT22;17300;50.374;8.006;2023-12-22T21:43:47;14.30;54.20
30520;DHT22;17300;50.374;8.006;2023-12-22T21:46:14;14.30;54.10
30520;DHT22;17300;50.374;8.006;2023-12-22T21:48:41;14.30;54.10
30520;DHT22;17300;50.374;8.006;2023-12-22T21:51:08;14.30;53.90
30520;DHT22;17300;50.374;8.006;2023-12-22T21:53:35;14.30;53.80
30520;DHT22;17300;50.374;8.006;2023-12-22T21:56:04;14.30;53.70
30520;DHT22;17300;50.374;8.006;2023-12-22T21:58:31;14.30;53.70
30520;DHT22;17300;50.374;8.006;2023-12-22T22:01:01;14.30;53.80
30520;DHT22;17300;50.374;8.006;2023-12-22T22:03:28;14.30;53.70
30520;DHT22;17300;50.374;8.006;2023-12-22T22:05:55;14.30;53.60
30520;DHT22;17300;50.374;8.006;2023-12-22T22:08:21;14.40;53.60
30520;DHT22;17300;50.374;8.006;2023-12-22T22:10:48;14.40;53.60
30520;DHT22;17300;50.374;8.006;2023-12-22T22:13:15;14.40;53.10
30520;DHT22;17300;50.374;8.006;2023-12-22T22:15:41;14.40;53.30
30520;DHT22;17300;50.374;8.006;2023-12-22T22:18:10;14.30;53.00
30520;DHT22;17300;50.374;8.006;2023-12-22T22:20:36;14.30;53.20
30520;DHT22;17300;50.374;8.006;2023-12-22T22:23:03;14.30;53.30
30520;DHT22;17300;50.374;8.006;2023-12-22T22:25:30;14.30;53.40
30520;DHT22;17300;50.374;8.006;2023-12-22T22:27:57;14.40;53.70
30520;DHT22;17300;50.374;8.006;2023-12-22T22:30:24;14.30;53.70
30520;DHT22;17300;50.374;8.006;2023-12-22T22:32:51;14.30;53.70
30520;DHT22;17300;50.374;8.006;2023-12-22T22:35:19;14.30;53.80
30520;DHT22;17300;50.374;8.006;2023-12-22T22:37:45;14.40;53.90
30520;DHT22;17300;50.374;8.006;2023-12-22T22:40:12;14.30;53.90
30520;DHT22;17300;50.374;8.006;2023-12-22T22:42:39;14.30;54.00
30520;DHT22;17300;50.374;8.006;2023-12-22T22:45:06;14.30;54.20
30520;DHT22;17300;50.374;8.006;2023-12-22T22:47:33;14.30;54.40
30520;DHT22;17300;50.374;8.006;2023-12-22T22:50:00;14.20;54.50